Time;durP1;ratioP1;P1;durP2;ratioP2;P2;SDS_P1;SDS_P2;PMS_P1;PMS_P2;Temp;Humidity;BMP_temperature;BMP_pressure;BME280_temperature;BME280_humidity;BME280_pressure;Samples;Min_cycle;Max_cycle;Signal;HPM_P1;HPM_P2
2022/02/02 00:02:05;;;;;;;;;;;22.50;28.50;;;;;;489627;242;1411;-62
2022/02/02 00:04:00;;;;;;;;;;;22.30;28.60;;;;;;489826;242;1399;-62
2022/02/02 00:06:09;;;;;;;;;;;22.30;28.60;;;;;;489678;242;1087;-63
2022/02/02 00:08:07;;;;;;;;;;;22.50;28.50;;;;;;489818;242;1397;-62
2022/02/02 00:10:14;;;;;;;;;;;22.40;28.60;;;;;;489818;242;1383;-63
2022/02/02 00:12:18;;;;;;;;;;;22.50;28.40;;;;;;489865;242;2188;-62
2022/02/02 00:14:26;;;;;;;;;;;22.40;28.50;;;;;;489777;242;1229;-62
2022/02/02 00:16:36;;;;;;;;;;;22.50;28.50;;;;;;489805;242;1362;-62
2022/02/02 00:18:45;;;;;;;;;;;22.50;28.50;;;;;;490117;242;1555;-62
2022/02/02 00:20:38;;;;;;;;;;;22.40;28.60;;;;;;490037;242;1434;-63
2022/02/02 00:22:37;;;;;;;;;;;22.40;28.50;;;;;;489730;242;1332;-62
2022/02/02 00:24:42;;;;;;;;;;;22.50;28.40;;;;;;489929;242;1533;-62
2022/02/02 00:26:41;;;;;;;;;;;22.40;28.60;;;;;;489741;242;1356;-62
2022/02/02 00:28:42;;;;;;;;;;;22.50;28.60;;;;;;489778;242;1499;-62
2022/02/02 00:30:39;;;;;;;;;;;22.40;28.70;;;;;;489713;242;1229;-62
2022/02/02 00:32:57;;;;;;;;;;;22.30;28.70;;;;;;489647;242;2193;-62
2022/02/02 00:34:48;;;;;;;;;;;22.30;28.70;;;;;;489906;242;1359;-62
2022/02/02 00:36:54;;;;;;;;;;;22.10;28.90;;;;;;489619;242;1278;-62
2022/02/02 00:38:52;;;;;;;;;;;22.10;29.00;;;;;;489845;242;1360;-62
2022/02/02 00:40:51;;;;;;;;;;;22.00;29.10;;;;;;489733;242;1311;-63
2022/02/02 00:42:53;;;;;;;;;;;21.90;29.20;;;;;;489665;242;1098;-62
2022/02/02 00:44:54;;;;;;;;;;;21.70;29.50;;;;;;489761;242;1056;-62
2022/02/02 00:46:55;;;;;;;;;;;21.70;29.40;;;;;;489551;242;1204;-62
2022/02/02 00:49:00;;;;;;;;;;;21.50;29.60;;;;;;489648;242;1019;-62
2022/02/02 00:51:00;;;;;;;;;;;21.50;29.70;;;;;;489716;242;1262;-62
2022/02/02 00:53:02;;;;;;;;;;;21.40;29.80;;;;;;489586;242;2122;-62
2022/02/02 00:55:03;;;;;;;;;;;21.30;30.00;;;;;;489679;242;1094;-63
2022/02/02 00:57:04;;;;;;;;;;;21.30;29.90;;;;;;489662;242;1214;-62
2022/02/02 00:59:06;;;;;;;;;;;21.20;30.00;;;;;;489788;242;961;-62
2022/02/02 01:01:07;;;;;;;;;;;21.20;30.00;;;;;;489604;242;1228;-62
2022/02/02 01:03:08;;;;;;;;;;;21.20;30.00;;;;;;489644;242;1103;-62
2022/02/02 01:05:10;;;;;;;;;;;21.20;30.00;;;;;;489696;242;1198;-62
2022/02/02 01:07:17;;;;;;;;;;;21.20;30.00;;;;;;489575;242;1086;-62
2022/02/02 01:09:20;;;;;;;;;;;21.20;30.00;;;;;;489846;242;1434;-62
2022/02/02 01:11:43;;;;;;;;;;;21.20;30.00;;;;;;489708;242;1411;-62
2022/02/02 01:13:52;;;;;;;;;;;21.20;30.00;;;;;;490227;242;2181;-62
2022/02/02 01:16:37;;;;;;;;;;;21.20;30.00;;;;;;489767;242;1369;-62
2022/02/02 01:18:20;;;;;;;;;;;21.10;30.10;;;;;;490162;242;1117;-62
2022/02/02 01:20:29;;;;;;;;;;;21.20;30.10;;;;;;489813;242;1399;-62
2022/02/02 01:27:42;;;;;;;;;;;21.20;30.00;;;;;;490028;242;1410;-62
2022/02/02 01:28:59;;;;;;;;;;;21.20;30.00;;;;;;489694;241;1272;-62
2022/02/02 01:31:01;;;;;;;;;;;21.20;30.00;;;;;;489788;242;1053;-62
2022/02/02 01:33:01;;;;;;;;;;;21.20;30.00;;;;;;489648;242;2130;-62
2022/02/02 01:35:03;;;;;;;;;;;21.30;30.00;;;;;;489679;242;1136;-62
2022/02/02 01:37:04;;;;;;;;;;;21.20;30.10;;;;;;489653;242;1351;-62
2022/02/02 01:39:07;;;;;;;;;;;21.30;30.00;;;;;;489807;242;1063;-62
2022/02/02 01:41:10;;;;;;;;;;;21.20;30.10;;;;;;489645;242;1446;-62
2022/02/02 01:43:12;;;;;;;;;;;21.20;30.10;;;;;;489808;242;1359;-62
2022/02/02 01:45:16;;;;;;;;;;;21.10;30.20;;;;;;489837;242;1393;-62
2022/02/02 01:47:12;;;;;;;;;;;21.20;30.10;;;;;;489772;242;1340;-62
2022/02/02 01:52:16;;;;;;;;;;;21.20;30.10;;;;;;489575;242;1231;-62
2022/02/02 01:54:15;;;;;;;;;;;21.10;30.20;;;;;;489982;242;2189;-63
2022/02/02 01:56:04;;;;;;;;;;;21.10;30.30;;;;;;489883;242;1449;-62
2022/02/02 01:58:15;;;;;;;;;;;21.20;30.10;;;;;;489691;242;1222;-62
2022/02/02 02:00:07;;;;;;;;;;;21.10;30.40;;;;;;489905;242;1428;-63
2022/02/02 02:02:08;;;;;;;;;;;21.10;30.40;;;;;;489596;242;1070;-62
2022/02/02 02:04:09;;;;;;;;;;;21.10;30.30;;;;;;489652;242;979;-62
2022/02/02 02:06:11;;;;;;;;;;;21.10;30.40;;;;;;489634;242;1319;-62
2022/02/02 02:08:12;;;;;;;;;;;21.20;30.20;;;;;;489683;242;1226;-62
2022/02/02 02:10:13;;;;;;;;;;;21.10;30.40;;;;;;489700;242;970;-62
2022/02/02 02:12:14;;;;;;;;;;;21.10;30.40;;;;;;489768;242;1053;-62
2022/02/02 02:14:42;;;;;;;;;;;21.10;30.40;;;;;;489842;242;2188;-63
2022/02/02 02:16:39;;;;;;;;;;;21.10;30.50;;;;;;489740;242;1353;-62
2022/02/02 02:18:40;;;;;;;;;;;21.10;30.40;;;;;;489671;242;1036;-62
2022/02/02 02:20:42;;;;;;;;;;;21.20;30.30;;;;;;489638;242;1148;-63
2022/02/02 02:22:44;;;;;;;;;;;21.10;30.50;;;;;;489590;242;1124;-62
2022/02/02 02:24:45;;;;;;;;;;;21.10;30.30;;;;;;489662;242;1397;-63
2022/02/02 02:26:45;;;;;;;;;;;21.10;30.30;;;;;;489578;242;1448;-62
2022/02/02 02:28:57;;;;;;;;;;;21.20;30.20;;;;;;489708;242;1068;-62
2022/02/02 02:30:51;;;;;;;;;;;21.40;30.00;;;;;;490006;242;1347;-62
2022/02/02 02:38:00;;;;;;;;;;;21.70;29.70;;;;;;489339;242;1476;-62
2022/02/02 02:39:58;;;;;;;;;;;21.90;29.60;;;;;;489962;242;1387;-63
2022/02/02 02:55:54;;;;;;;;;;;22.30;29.30;;;;;;489643;241;1043;-62
2022/02/02 02:57:59;;;;;;;;;;;22.40;29.20;;;;;;489734;242;1364;-62
2022/02/02 03:00:18;;;;;;;;;;;22.30;29.40;;;;;;489877;242;1396;-62
2022/02/02 03:02:38;;;;;;;;;;;22.40;29.30;;;;;;489949;242;1361;-62
2022/02/02 03:14:39;;;;;;;;;;;22.40;29.20;;;;;;489630;241;2113;-62
2022/02/02 03:30:08;;;;;;;;;;;22.60;29.20;;;;;;489778;241;948;-62
2022/02/02 03:32:27;;;;;;;;;;;22.60;29.10;;;;;;489740;242;1431;-63
2022/02/02 03:34:41;;;;;;;;;;;22.60;29.20;;;;;;490253;242;2205;-63
2022/02/02 03:55:26;;;;;;;;;;;23.00;28.90;;;;;;489689;242;939;-63
2022/02/02 03:57:31;;;;;;;;;;;22.90;29.00;;;;;;489756;242;1388;-62
2022/02/02 03:59:36;;;;;;;;;;;22.90;28.90;;;;;;489759;242;1326;-62
2022/02/02 04:01:49;;;;;;;;;;;22.90;28.90;;;;;;489681;242;1312;-62
2022/02/02 04:03:51;;;;;;;;;;;23.00;29.00;;;;;;490017;242;1440;-63
2022/02/02 04:05:45;;;;;;;;;;;23.00;28.90;;;;;;489902;242;1408;-62
2022/02/02 04:07:48;;;;;;;;;;;22.90;28.90;;;;;;489630;242;1296;-63
2022/02/02 04:09:47;;;;;;;;;;;23.10;28.80;;;;;;489668;242;1415;-63
2022/02/02 04:11:55;;;;;;;;;;;23.00;28.90;;;;;;489577;242;1356;-62
2022/02/02 04:51:38;;;;;;;;;;;21.60;30.50;;;;;;489691;241;1341;-63
2022/02/02 04:56:27;;;;;;;;;;;21.40;30.60;;;;;;485159;245;1145;-63
2022/02/02 04:58:35;;;;;;;;;;;21.50;30.70;;;;;;484404;246;1423;-62
2022/02/02 05:07:38;;;;;;;;;;;21.50;30.60;;;;;;472048;252;1226;-62
2022/02/02 05:09:43;;;;;;;;;;;21.50;30.60;;;;;;471768;252;1377;-62
2022/02/02 05:12:17;;;;;;;;;;;21.50;30.60;;;;;;478029;249;1570;-62
2022/02/02 05:16:54;;;;;;;;;;;21.50;30.60;;;;;;478791;249;1202;-62
2022/02/02 05:19:15;;;;;;;;;;;21.50;30.60;;;;;;478265;249;1445;-63
2022/02/02 05:21:44;;;;;;;;;;;21.40;30.70;;;;;;477645;249;1400;-62
2022/02/02 05:45:36;;;;;;;;;;;21.60;30.40;;;;;;466051;247;1228;-62
2022/02/02 05:50:10;;;;;;;;;;;21.50;30.50;;;;;;482089;247;1124;-62
2022/02/02 05:51:57;;;;;;;;;;;21.50;30.60;;;;;;481237;247;1242;-63
2022/02/02 05:53:58;;;;;;;;;;;21.60;30.60;;;;;;482137;246;2161;-63
2022/02/02 05:56:00;;;;;;;;;;;21.60;30.70;;;;;;482056;246;977;-62
2022/02/02 05:58:01;;;;;;;;;;;21.60;30.50;;;;;;482085;246;1058;-62
2022/02/02 06:00:02;;;;;;;;;;;21.60;30.50;;;;;;482161;246;1118;-62
2022/02/02 06:02:04;;;;;;;;;;;21.70;30.40;;;;;;482046;246;1061;-62
2022/02/02 06:04:05;;;;;;;;;;;21.70;30.40;;;;;;481937;246;1255;-62
2022/02/02 06:06:07;;;;;;;;;;;21.60;30.40;;;;;;481826;246;1059;-62
2022/02/02 06:08:08;;;;;;;;;;;21.70;30.30;;;;;;481882;246;1311;-62
2022/02/02 06:10:09;;;;;;;;;;;21.90;30.20;;;;;;482056;246;979;-62
2022/02/02 06:12:10;;;;;;;;;;;21.90;30.20;;;;;;481996;246;1091;-62
2022/02/02 06:14:12;;;;;;;;;;;22.10;30.00;;;;;;482123;246;2196;-62
2022/02/02 06:16:14;;;;;;;;;;;22.10;29.90;;;;;;482061;246;1167;-62
2022/02/02 06:18:14;;;;;;;;;;;22.20;29.80;;;;;;482011;246;1479;-62
2022/02/02 06:20:16;;;;;;;;;;;22.30;29.80;;;;;;482029;246;1108;-63
2022/02/02 06:22:17;;;;;;;;;;;22.40;29.80;;;;;;481937;246;1178;-62
2022/02/02 06:24:18;;;;;;;;;;;22.50;29.70;;;;;;482050;246;1157;-63
2022/02/02 06:26:20;;;;;;;;;;;22.50;29.70;;;;;;481995;246;1146;-63
2022/02/02 06:28:21;;;;;;;;;;;22.60;29.50;;;;;;482039;246;1051;-63
2022/02/02 06:30:22;;;;;;;;;;;22.60;29.50;;;;;;482000;246;1043;-63
2022/02/02 06:32:24;;;;;;;;;;;22.80;29.50;;;;;;481793;246;1165;-63
2022/02/02 06:34:25;;;;;;;;;;;22.70;29.60;;;;;;481872;246;2109;-62
2022/02/02 06:36:26;;;;;;;;;;;22.80;29.50;;;;;;481868;246;1142;-63
2022/02/02 06:38:28;;;;;;;;;;;22.80;29.50;;;;;;481883;246;1163;-63
2022/02/02 06:40:29;;;;;;;;;;;22.80;29.40;;;;;;481885;246;1380;-63
2022/02/02 06:42:30;;;;;;;;;;;22.80;29.50;;;;;;481878;246;1152;-62
2022/02/02 06:44:32;;;;;;;;;;;22.90;29.40;;;;;;481941;246;1064;-63
2022/02/02 06:46:35;;;;;;;;;;;22.90;29.50;;;;;;481841;246;1200;-63
2022/02/02 06:48:34;;;;;;;;;;;22.70;29.70;;;;;;481786;247;1244;-63
2022/02/02 06:50:40;;;;;;;;;;;22.90;29.50;;;;;;481865;246;1396;-64
2022/02/02 06:52:37;;;;;;;;;;;22.70;29.80;;;;;;481582;247;1394;-63
2022/02/02 06:54:46;;;;;;;;;;;22.70;29.80;;;;;;481838;247;2324;-63
2022/02/02 06:56:47;;;;;;;;;;;22.60;29.90;;;;;;481533;247;1579;-63
2022/02/02 06:58:58;;;;;;;;;;;22.60;29.80;;;;;;481663;247;1333;-63
2022/02/02 07:00:57;;;;;;;;;;;22.60;29.80;;;;;;480988;247;1849;-63
2022/02/02 07:03:01;;;;;;;;;;;22.70;29.80;;;;;;481378;247;1996;-63
2022/02/02 07:07:25;;;;;;;;;;;22.80;29.70;;;;;;477807;247;1326;-63
2022/02/02 07:09:27;;;;;;;;;;;23.00;29.40;;;;;;481060;247;1749;-63
2022/02/02 07:11:28;;;;;;;;;;;23.00;29.50;;;;;;481029;247;1419;-63
2022/02/02 07:13:29;;;;;;;;;;;22.90;29.40;;;;;;481025;247;2210;-63
2022/02/02 07:15:31;;;;;;;;;;;23.10;29.40;;;;;;481234;247;2188;-63
2022/02/02 07:17:40;;;;;;;;;;;22.90;29.50;;;;;;481149;247;1382;-61
2022/02/02 07:19:48;;;;;;;;;;;23.00;29.30;;;;;;481121;247;1435;-63
2022/02/02 07:22:09;;;;;;;;;;;23.00;29.40;;;;;;480839;247;2264;-64
2022/02/02 07:24:16;;;;;;;;;;;23.10;29.40;;;;;;481313;247;2107;-61
2022/02/02 07:26:26;;;;;;;;;;;23.00;29.50;;;;;;480997;247;2290;-62
2022/02/02 07:28:24;;;;;;;;;;;23.20;29.40;;;;;;481134;247;2200;-62
2022/02/02 07:30:44;;;;;;;;;;;23.20;29.40;;;;;;481365;247;1554;-61
2022/02/02 07:32:39;;;;;;;;;;;23.10;29.50;;;;;;480734;247;2008;-61
2022/02/02 07:34:39;;;;;;;;;;;23.10;29.50;;;;;;481022;247;2325;-61
2022/02/02 07:36:38;;;;;;;;;;;23.10;29.50;;;;;;481212;247;2191;-61
2022/02/02 07:38:37;;;;;;;;;;;23.20;29.30;;;;;;481345;247;2376;-62
2022/02/02 07:40:38;;;;;;;;;;;23.10;29.30;;;;;;481454;246;1373;-62
2022/02/02 07:42:39;;;;;;;;;;;23.20;29.30;;;;;;481633;246;1202;-61
2022/02/02 07:44:42;;;;;;;;;;;23.30;29.30;;;;;;481564;246;1043;-61
2022/02/02 07:46:42;;;;;;;;;;;23.30;29.30;;;;;;481503;246;1777;-62
2022/02/02 07:48:44;;;;;;;;;;;23.30;29.40;;;;;;481645;246;1193;-62
2022/02/02 07:50:45;;;;;;;;;;;23.10;29.60;;;;;;481508;246;2409;-61
2022/02/02 07:52:46;;;;;;;;;;;23.10;29.60;;;;;;481661;246;1056;-61
2022/02/02 07:54:49;;;;;;;;;;;23.20;29.60;;;;;;481290;246;2184;-62
2022/02/02 07:56:48;;;;;;;;;;;23.20;29.60;;;;;;481415;247;2089;-62
2022/02/02 07:59:00;;;;;;;;;;;23.00;29.90;;;;;;481477;246;1042;-62
2022/02/02 08:00:53;;;;;;;;;;;23.00;29.90;;;;;;480726;247;1539;-62
2022/02/02 08:03:03;;;;;;;;;;;22.90;30.00;;;;;;481439;247;1340;-62
2022/02/02 08:04:59;;;;;;;;;;;22.90;30.00;;;;;;481133;247;1931;-62
2022/02/02 08:06:59;;;;;;;;;;;22.70;30.20;;;;;;481378;247;1527;-61
2022/02/02 08:09:00;;;;;;;;;;;22.70;30.20;;;;;;481599;246;1225;-61
2022/02/02 08:11:05;;;;;;;;;;;22.60;30.50;;;;;;481447;246;1322;-61
2022/02/02 08:13:09;;;;;;;;;;;22.50;30.70;;;;;;481291;247;1752;-61
2022/02/02 08:15:04;;;;;;;;;;;22.40;30.80;;;;;;481105;247;2197;-62
2022/02/02 08:17:06;;;;;;;;;;;22.30;31.10;;;;;;481691;246;1205;-61
2022/02/02 08:19:07;;;;;;;;;;;22.20;31.10;;;;;;481488;246;2308;-62
2022/02/02 08:21:08;;;;;;;;;;;22.10;31.30;;;;;;481513;246;1213;-62
2022/02/02 08:23:09;;;;;;;;;;;21.90;31.50;;;;;;481646;246;1136;-62
2022/02/02 08:25:11;;;;;;;;;;;21.80;31.60;;;;;;481563;246;1189;-61
2022/02/02 08:27:12;;;;;;;;;;;21.80;31.70;;;;;;481546;246;1603;-62
2022/02/02 08:29:13;;;;;;;;;;;21.70;31.80;;;;;;481540;246;1065;-62
2022/02/02 08:31:15;;;;;;;;;;;21.70;32.00;;;;;;481443;246;1160;-62
2022/02/02 08:33:20;;;;;;;;;;;21.60;32.00;;;;;;481913;247;1191;-62
2022/02/02 08:35:19;;;;;;;;;;;21.50;32.10;;;;;;481132;247;2189;-61
2022/02/02 08:37:19;;;;;;;;;;;21.60;32.10;;;;;;481310;247;1321;-62
2022/02/02 08:39:28;;;;;;;;;;;21.60;31.90;;;;;;481538;246;1202;-61
2022/02/02 08:41:28;;;;;;;;;;;21.60;31.80;;;;;;481118;247;2255;-62
2022/02/02 08:43:29;;;;;;;;;;;21.60;31.90;;;;;;481642;247;1857;-62
2022/02/02 08:45:31;;;;;;;;;;;21.60;31.80;;;;;;481147;247;2309;-61
2022/02/02 08:47:28;;;;;;;;;;;21.60;31.70;;;;;;481285;247;1493;-62
2022/02/02 08:49:34;;;;;;;;;;;21.60;31.80;;;;;;481434;246;1231;-61
2022/02/02 08:51:36;;;;;;;;;;;21.60;31.70;;;;;;481111;247;1346;-62
2022/02/02 08:53:40;;;;;;;;;;;21.70;31.70;;;;;;481271;247;1253;-62
2022/02/02 08:58:18;;;;;;;;;;;21.70;31.50;;;;;;477668;247;1276;-62
2022/02/02 09:00:09;;;;;;;;;;;21.90;31.20;;;;;;480037;247;1381;-61
2022/02/02 09:02:05;;;;;;;;;;;22.00;31.10;;;;;;480774;247;2206;-62
2022/02/02 09:06:22;;;;;;;;;;;22.20;30.90;;;;;;481368;247;1117;-62
2022/02/02 09:08:28;;;;;;;;;;;22.40;30.60;;;;;;481621;246;1369;-62
2022/02/02 09:20:00;;;;;;;;;;;22.50;30.50;;;;;;481126;247;1521;-62
2022/02/02 09:24:19;;;;;;;;;;;22.90;29.90;;;;;;466454;247;1160;-62
2022/02/02 09:33:51;;;;;;;;;;;22.60;30.30;;;;;;481407;247;1046;-62
2022/02/02 09:35:31;;;;;;;;;;;22.50;30.50;;;;;;479842;247;2169;-62
2022/02/02 09:37:32;;;;;;;;;;;22.40;30.70;;;;;;481183;246;1338;-62
2022/02/02 09:39:39;;;;;;;;;;;22.40;30.70;;;;;;481512;246;1176;-61
2022/02/02 09:41:42;;;;;;;;;;;22.40;30.70;;;;;;481113;247;1689;-62
2022/02/02 09:43:40;;;;;;;;;;;22.30;30.80;;;;;;481280;247;2323;-62
2022/02/02 09:45:42;;;;;;;;;;;22.30;30.90;;;;;;481318;246;1238;-62
2022/02/02 09:47:47;;;;;;;;;;;22.20;30.90;;;;;;481426;246;1144;-61
2022/02/02 09:49:52;;;;;;;;;;;22.20;31.10;;;;;;481185;247;2169;-61
2022/02/02 09:51:52;;;;;;;;;;;22.10;31.10;;;;;;480992;247;2330;-61
2022/02/02 09:53:56;;;;;;;;;;;22.10;31.30;;;;;;480968;247;2143;-61
2022/02/02 09:56:01;;;;;;;;;;;22.10;31.30;;;;;;480791;247;2192;-61
2022/02/02 09:58:19;;;;;;;;;;;22.10;31.40;;;;;;480819;247;2223;-61
2022/02/02 10:00:17;;;;;;;;;;;22.00;31.40;;;;;;479973;247;1506;-61
2022/02/02 10:02:29;;;;;;;;;;;22.10;31.30;;;;;;481079;247;1390;-60
2022/02/02 10:04:31;;;;;;;;;;;22.00;31.20;;;;;;480537;247;2264;-61
2022/02/02 10:06:33;;;;;;;;;;;22.00;31.40;;;;;;480469;247;2046;-61
2022/02/02 10:08:50;;;;;;;;;;;22.00;31.30;;;;;;480665;247;1302;-63
2022/02/02 10:13:16;;;;;;;;;;;22.00;31.40;;;;;;482118;246;995;-61
2022/02/02 10:15:07;;;;;;;;;;;22.00;31.30;;;;;;480589;247;2209;-60
2022/02/02 10:17:11;;;;;;;;;;;22.10;31.30;;;;;;481357;246;1262;-60
2022/02/02 10:19:10;;;;;;;;;;;22.00;31.30;;;;;;481244;247;2198;-61
2022/02/02 10:21:12;;;;;;;;;;;22.10;31.20;;;;;;481299;246;1043;-60
2022/02/02 10:23:14;;;;;;;;;;;22.00;31.20;;;;;;481367;247;1383;-60
2022/02/02 10:25:14;;;;;;;;;;;22.00;31.10;;;;;;481321;246;1322;-60
2022/02/02 10:27:15;;;;;;;;;;;22.00;31.00;;;;;;481307;246;1312;-60
2022/02/02 10:29:17;;;;;;;;;;;22.10;30.90;;;;;;481294;246;1081;-60
2022/02/02 10:31:18;;;;;;;;;;;22.10;30.80;;;;;;481162;246;1227;-60
2022/02/02 10:33:20;;;;;;;;;;;22.20;30.70;;;;;;481819;246;1413;-62
2022/02/02 10:35:21;;;;;;;;;;;22.20;30.70;;;;;;481403;246;2181;-60
2022/02/02 10:37:29;;;;;;;;;;;22.20;30.50;;;;;;481519;246;1089;-60
2022/02/02 10:39:24;;;;;;;;;;;22.40;30.40;;;;;;481018;247;1392;-60
2022/02/02 10:41:31;;;;;;;;;;;22.40;30.30;;;;;;481409;246;1263;-61
2022/02/02 10:43:33;;;;;;;;;;;22.30;30.50;;;;;;481203;247;1557;-60
2022/02/02 10:45:32;;;;;;;;;;;22.30;30.50;;;;;;481177;247;1721;-61
2022/02/02 10:47:37;;;;;;;;;;;22.20;30.70;;;;;;481427;246;1143;-60
2022/02/02 10:49:45;;;;;;;;;;;22.10;30.90;;;;;;481060;247;2391;-60
2022/02/02 10:51:40;;;;;;;;;;;22.20;30.50;;;;;;480581;247;2113;-60
2022/02/02 10:53:59;;;;;;;;;;;22.30;30.50;;;;;;481119;247;1889;-60
2022/02/02 10:56:00;;;;;;;;;;;22.60;30.20;;;;;;480483;247;2125;-60
2022/02/02 10:58:05;;;;;;;;;;;22.60;30.10;;;;;;481541;247;1945;-61
2022/02/02 11:00:08;;;;;;;;;;;22.50;30.40;;;;;;481217;247;1318;-60
2022/02/02 11:06:58;;;;;;;;;;;22.00;30.90;;;;;;473473;247;1219;-60
2022/02/02 11:08:59;;;;;;;;;;;22.20;30.70;;;;;;481319;246;1084;-61
2022/02/02 11:11:00;;;;;;;;;;;22.00;30.90;;;;;;481218;246;1418;-60
2022/02/02 11:13:02;;;;;;;;;;;22.10;30.80;;;;;;481630;246;1115;-60
2022/02/02 11:15:03;;;;;;;;;;;22.10;30.90;;;;;;481279;246;1068;-61
2022/02/02 11:17:04;;;;;;;;;;;22.10;30.80;;;;;;481492;246;2257;-60
2022/02/02 11:19:06;;;;;;;;;;;22.00;31.10;;;;;;481491;246;1078;-61
2022/02/02 11:21:07;;;;;;;;;;;21.90;31.20;;;;;;481393;246;1309;-60
2022/02/02 11:23:08;;;;;;;;;;;21.90;31.20;;;;;;481734;246;1137;-60
2022/02/02 11:25:09;;;;;;;;;;;21.90;31.30;;;;;;481467;246;1155;-61
2022/02/02 11:27:11;;;;;;;;;;;21.80;31.40;;;;;;481553;246;1132;-60
2022/02/02 11:29:12;;;;;;;;;;;21.80;31.30;;;;;;481381;246;1218;-60
2022/02/02 11:31:16;;;;;;;;;;;21.90;31.20;;;;;;481370;246;1337;-61
2022/02/02 11:33:16;;;;;;;;;;;22.00;31.10;;;;;;481453;246;1237;-61
2022/02/02 11:35:17;;;;;;;;;;;22.00;31.20;;;;;;481646;246;1073;-62
2022/02/02 11:37:19;;;;;;;;;;;21.90;31.20;;;;;;481544;246;2577;-62
2022/02/02 11:39:20;;;;;;;;;;;21.90;31.10;;;;;;481496;246;1179;-62
2022/02/02 11:41:32;;;;;;;;;;;21.90;31.10;;;;;;481358;246;1484;-61
2022/02/02 11:43:25;;;;;;;;;;;22.00;31.10;;;;;;480997;247;2233;-61
2022/02/02 11:45:28;;;;;;;;;;;22.10;31.00;;;;;;481663;246;1046;-62
2022/02/02 11:47:28;;;;;;;;;;;22.10;30.80;;;;;;481486;247;1246;-63
2022/02/02 11:49:33;;;;;;;;;;;22.10;30.90;;;;;;481513;246;1110;-62
2022/02/02 11:51:31;;;;;;;;;;;22.10;30.90;;;;;;481215;247;1349;-63
2022/02/02 11:53:32;;;;;;;;;;;22.00;30.90;;;;;;481520;246;1095;-64
2022/02/02 11:55:34;;;;;;;;;;;22.00;30.90;;;;;;481382;246;2197;-62
2022/02/02 11:57:38;;;;;;;;;;;22.10;30.90;;;;;;481567;246;1334;-63
2022/02/02 11:59:36;;;;;;;;;;;22.10;30.60;;;;;;481392;247;1497;-62
2022/02/02 12:01:39;;;;;;;;;;;22.10;30.80;;;;;;481466;246;1207;-62
2022/02/02 12:03:45;;;;;;;;;;;22.10;30.70;;;;;;481339;247;1368;-62
2022/02/02 12:06:04;;;;;;;;;;;22.10;30.80;;;;;;480975;247;1377;-61
2022/02/02 12:08:09;;;;;;;;;;;22.10;30.80;;;;;;480902;247;1369;-62
2022/02/02 12:10:08;;;;;;;;;;;22.20;30.50;;;;;;481127;247;1396;-62
2022/02/02 12:44:36;;;;;;;;;;;22.70;30.00;;;;;;481337;247;2134;-62
2022/02/02 12:47:48;;;;;;;;;;;23.20;29.40;;;;;;481531;246;1201;-62
2022/02/02 12:49:45;;;;;;;;;;;23.00;29.60;;;;;;481274;247;1331;-62
2022/02/02 12:54:31;;;;;;;;;;;22.80;29.90;;;;;;481462;247;1042;-62
2022/02/02 12:56:21;;;;;;;;;;;22.80;29.90;;;;;;479809;247;2233;-62
2022/02/02 12:58:24;;;;;;;;;;;22.80;29.90;;;;;;481137;247;2386;-60
2022/02/02 13:00:22;;;;;;;;;;;22.70;30.00;;;;;;481138;247;1433;-59
2022/02/02 13:02:22;;;;;;;;;;;22.70;30.10;;;;;;481536;247;2216;-61
2022/02/02 13:04:24;;;;;;;;;;;22.80;30.00;;;;;;481299;246;1089;-60
2022/02/02 13:06:26;;;;;;;;;;;22.90;29.90;;;;;;481367;246;1225;-61
2022/02/02 13:08:27;;;;;;;;;;;22.60;30.10;;;;;;481587;246;1070;-61
2022/02/02 13:10:28;;;;;;;;;;;22.40;30.50;;;;;;482082;246;893;-60
2022/02/02 13:12:33;;;;;;;;;;;22.40;30.60;;;;;;481857;246;1052;-61
2022/02/02 13:14:45;;;;;;;;;;;22.30;30.70;;;;;;481307;247;2200;-60
2022/02/02 13:16:33;;;;;;;;;;;22.10;31.20;;;;;;480448;247;2227;-60
2022/02/02 13:18:37;;;;;;;;;;;22.00;31.30;;;;;;481442;246;1262;-60
2022/02/02 13:20:43;;;;;;;;;;;22.20;30.90;;;;;;481244;247;1317;-60
2022/02/02 13:22:40;;;;;;;;;;;22.20;30.90;;;;;;481092;247;1327;-61
2022/02/02 13:24:43;;;;;;;;;;;22.10;31.10;;;;;;481210;247;1510;-60
2022/02/02 13:26:46;;;;;;;;;;;22.30;30.90;;;;;;481017;247;1403;-61
2022/02/02 13:28:47;;;;;;;;;;;22.50;30.60;;;;;;481094;247;1280;-61
2022/02/02 13:30:50;;;;;;;;;;;22.50;30.60;;;;;;481230;247;2683;-61
2022/02/02 13:32:52;;;;;;;;;;;22.50;30.60;;;;;;481005;247;1313;-61
2022/02/02 13:34:59;;;;;;;;;;;22.40;30.70;;;;;;481186;247;2115;-61
2022/02/02 13:42:19;;;;;;;;;;;22.40;30.70;;;;;;470037;247;1246;-61
2022/02/02 13:44:06;;;;;;;;;;;22.40;30.80;;;;;;481372;247;1969;-60
2022/02/02 13:53:19;;;;;;;;;;;23.00;30.10;;;;;;481291;247;1211;-64
2022/02/02 13:55:14;;;;;;;;;;;23.20;30.00;;;;;;480360;247;2258;-63
2022/02/02 13:57:30;;;;;;;;;;;23.10;30.00;;;;;;480787;247;2349;-63
2022/02/02 13:59:45;;;;;;;;;;;23.20;30.00;;;;;;480259;247;2221;-63
2022/02/02 14:01:34;;;;;;;;;;;23.20;30.00;;;;;;479395;247;2168;-63
2022/02/02 14:06:19;;;;;;;;;;;23.10;30.10;;;;;;457299;259;1212;-63
2022/02/02 14:10:43;;;;;;;;;;;23.10;30.20;;;;;;466808;247;1136;-63
2022/02/02 14:31:11;;;;;;;;;;;23.10;30.20;;;;;;481334;247;1183;-63
2022/02/02 14:33:12;;;;;;;;;;;23.30;30.00;;;;;;481576;247;1291;-63
2022/02/02 14:35:16;;;;;;;;;;;23.30;30.00;;;;;;482136;246;895;-63
2022/02/02 14:37:19;;;;;;;;;;;23.30;29.90;;;;;;481428;247;2200;-63
2022/02/02 14:39:21;;;;;;;;;;;23.40;29.90;;;;;;481333;247;2377;-63
2022/02/02 14:41:27;;;;;;;;;;;23.50;29.70;;;;;;481125;247;2190;-63
2022/02/02 14:43:27;;;;;;;;;;;23.50;29.80;;;;;;480908;247;1393;-63
2022/02/02 14:45:25;;;;;;;;;;;23.50;29.60;;;;;;481036;247;1492;-63
2022/02/02 14:47:29;;;;;;;;;;;23.40;29.70;;;;;;481158;247;1442;-63
2022/02/02 14:49:30;;;;;;;;;;;23.60;29.50;;;;;;480901;247;1486;-63
2022/02/02 14:51:37;;;;;;;;;;;23.50;29.60;;;;;;480820;247;2205;-63
2022/02/02 14:53:38;;;;;;;;;;;23.20;29.80;;;;;;480908;247;1852;-63
2022/02/02 15:09:00;;;;;;;;;;;23.10;30.00;;;;;;456817;259;1239;-63
2022/02/02 15:27:16;;;;;;;;;;;23.00;29.90;;;;;;481481;247;1122;-63
2022/02/02 15:29:03;;;;;;;;;;;23.00;30.00;;;;;;480003;247;1167;-63
2022/02/02 15:30:59;;;;;;;;;;;23.00;29.90;;;;;;480775;247;1872;-63
2022/02/02 15:33:00;;;;;;;;;;;23.00;30.00;;;;;;481042;247;1439;-63
2022/02/02 15:34:59;;;;;;;;;;;22.90;30.00;;;;;;481160;247;1837;-63
2022/02/02 15:37:22;;;;;;;;;;;22.80;30.00;;;;;;481216;247;2193;-63
2022/02/02 15:39:19;;;;;;;;;;;22.90;30.00;;;;;;481000;247;1375;-63
2022/02/02 15:41:24;;;;;;;;;;;23.00;29.90;;;;;;481397;246;1335;-63
2022/02/02 15:43:32;;;;;;;;;;;23.00;29.90;;;;;;481090;247;1349;-63
2022/02/02 15:55:21;;;;;;;;;;;23.00;29.80;;;;;;481555;247;1137;-63
2022/02/02 16:00:02;;;;;;;;;;;23.10;29.90;;;;;;481381;246;1196;-63
2022/02/02 16:02:09;;;;;;;;;;;23.00;29.90;;;;;;480734;247;1959;-63
2022/02/02 16:04:12;;;;;;;;;;;23.00;29.90;;;;;;481267;247;2149;-63
2022/02/02 16:06:15;;;;;;;;;;;22.90;30.00;;;;;;481180;247;1920;-63
2022/02/02 16:08:14;;;;;;;;;;;22.90;29.90;;;;;;481118;247;1394;-63
2022/02/02 16:10:19;;;;;;;;;;;22.80;30.00;;;;;;481177;247;1483;-63
2022/02/02 16:12:19;;;;;;;;;;;22.70;30.10;;;;;;480972;247;1555;-63
2022/02/02 16:14:24;;;;;;;;;;;22.60;30.00;;;;;;481209;247;1280;-63
2022/02/02 16:16:40;;;;;;;;;;;22.80;30.00;;;;;;481033;247;2204;-63
2022/02/02 16:18:41;;;;;;;;;;;22.80;30.00;;;;;;480635;247;2204;-63
2022/02/02 16:32:56;;;;;;;;;;;22.70;30.00;;;;;;481603;247;1189;-63
2022/02/02 16:35:01;;;;;;;;;;;22.70;30.00;;;;;;480294;247;1552;-63
2022/02/02 16:36:54;;;;;;;;;;;22.60;30.20;;;;;;480861;247;2212;-63
2022/02/02 16:39:00;;;;;;;;;;;22.50;30.30;;;;;;481531;247;1237;-63
2022/02/02 16:41:01;;;;;;;;;;;22.60;30.20;;;;;;481385;247;1373;-63
2022/02/02 16:43:13;;;;;;;;;;;22.60;30.20;;;;;;481303;247;1383;-63
2022/02/02 16:45:12;;;;;;;;;;;22.40;30.40;;;;;;481657;247;1354;-63
2022/02/02 16:47:14;;;;;;;;;;;22.40;30.30;;;;;;481750;246;1086;-63
2022/02/02 16:49:15;;;;;;;;;;;22.50;30.30;;;;;;481751;246;2202;-63
2022/02/02 16:51:16;;;;;;;;;;;22.50;30.40;;;;;;481664;246;1349;-63
2022/02/02 16:53:27;;;;;;;;;;;22.50;30.20;;;;;;481772;246;1054;-63
2022/02/02 16:55:34;;;;;;;;;;;22.60;30.10;;;;;;481469;247;1428;-63
2022/02/02 16:57:42;;;;;;;;;;;22.70;30.10;;;;;;481353;247;2279;-63
2022/02/02 17:29:55;;;;;;;;;;;22.70;29.80;;;;;;481720;247;1141;-63
2022/02/02 17:32:01;;;;;;;;;;;22.80;29.70;;;;;;481440;247;2176;-63
2022/02/02 17:34:01;;;;;;;;;;;22.70;29.70;;;;;;481350;247;1785;-63
2022/02/02 17:36:13;;;;;;;;;;;22.70;29.70;;;;;;481386;247;1377;-63
2022/02/02 17:38:13;;;;;;;;;;;22.60;29.90;;;;;;481126;247;2117;-63
2022/02/02 17:40:13;;;;;;;;;;;22.60;29.90;;;;;;481302;247;1873;-63